createdAt,value
2022-08-04T00:02:15.691Z,75.03
2022-08-04T00:04:48.327Z,75.47
2022-08-04T00:07:44.212Z,75.33
2022-08-04T00:10:11.191Z,76.24
2022-08-04T00:12:43.394Z,75.88
2022-08-04T00:15:15.577Z,75.78
2022-08-04T00:17:54.178Z,75.28
2022-08-04T00:20:21.473Z,75.69
2022-08-04T00:22:48.866Z,75.53
2022-08-04T00:25:16.428Z,75.26
2022-08-04T00:27:43.601Z,75.26
2022-08-04T00:30:10.375Z,75.29
2022-08-04T00:32:43.702Z,74.84
2022-08-04T00:35:14.076Z,75.20
2022-08-04T00:37:43.848Z,74.96
2022-08-04T00:40:18.638Z,75.01
2022-08-04T00:42:59.202Z,75.40
2022-08-04T00:45:35.694Z,75.93
2022-08-04T00:48:48.915Z,75.95
2022-08-04T00:52:31.806Z,76.78
2022-08-04T00:55:06.964Z,76.30
2022-08-04T00:58:00.325Z,76.48
2022-08-04T01:00:28.227Z,76.09
2022-08-04T01:03:32.340Z,76.39
2022-08-04T01:06:34.536Z,75.64
2022-08-04T01:09:21.553Z,75.97
2022-08-04T01:12:08.107Z,76.07
2022-08-04T01:14:59.624Z,76.43
2022-08-04T01:18:04.018Z,76.43
2022-08-04T01:20:54.129Z,77.12
2022-08-04T01:23:59.000Z,77.49
2022-08-04T01:26:43.700Z,77.87
2022-08-04T01:29:16.258Z,77.35
2022-08-04T01:31:48.786Z,77.13
2022-08-04T01:34:16.512Z,76.34
2022-08-04T01:37:10.588Z,76.17
2022-08-04T01:39:44.629Z,77.04
2022-08-04T01:42:12.647Z,77.33
2022-08-04T01:44:51.276Z,77.90
2022-08-04T01:47:21.384Z,77.92
2022-08-04T01:49:50.290Z,78.03
2022-08-04T01:52:18.516Z,77.95
2022-08-04T01:54:46.874Z,77.72
2022-08-04T01:57:37.978Z,77.76
2022-08-04T02:00:05.871Z,77.85
2022-08-04T02:02:33.686Z,77.54
2022-08-04T02:05:00.176Z,77.72
2022-08-04T02:07:51.366Z,77.92
2022-08-04T02:10:42.760Z,77.85
2022-08-04T02:13:15.276Z,77.66
2022-08-04T02:16:05.107Z,77.44
2022-08-04T02:18:44.514Z,78.40
2022-08-04T02:21:15.856Z,78.59
2022-08-04T02:23:45.937Z,78.42
2022-08-04T02:26:22.165Z,79.06
2022-08-04T02:29:03.677Z,78.67
2022-08-04T02:31:44.259Z,78.98
2022-08-04T02:34:28.010Z,77.45
2022-08-04T02:36:55.694Z,78.34
2022-08-04T02:39:23.607Z,77.54
2022-08-04T02:41:52.959Z,78.00
2022-08-04T02:44:23.683Z,78.87
2022-08-04T02:46:53.014Z,79.01
2022-08-04T02:49:22.251Z,79.34
2022-08-04T02:51:54.683Z,78.65
2022-08-04T02:54:41.035Z,78.80
2022-08-04T02:57:11.360Z,79.70
2022-08-04T02:59:57.101Z,78.91
2022-08-04T03:02:34.692Z,78.89
2022-08-04T03:05:07.357Z,79.54
2022-08-04T03:08:21.979Z,78.27
2022-08-04T03:11:20.212Z,79.28
2022-08-04T03:13:53.560Z,78.74
2022-08-04T03:16:33.453Z,78.49
2022-08-04T03:19:04.932Z,78.80
2022-08-04T03:22:08.339Z,79.01
2022-08-04T03:25:00.023Z,79.34
2022-08-04T03:28:06.083Z,79.00
2022-08-04T03:30:59.456Z,79.19
2022-08-04T03:33:46.172Z,79.25
2022-08-04T03:36:15.688Z,79.24
2022-08-04T03:39:20.622Z,79.42
2022-08-04T03:42:08.055Z,79.96
2022-08-04T03:44:53.677Z,79.38
2022-08-04T03:47:53.543Z,78.65
2022-08-04T03:50:25.764Z,79.95
2022-08-04T03:53:08.887Z,80.11
2022-08-04T03:55:46.572Z,80.08
2022-08-04T03:58:46.744Z,80.39
2022-08-04T04:01:19.272Z,81.19
2022-08-04T04:04:14.406Z,80.72
2022-08-04T04:06:55.669Z,80.65
2022-08-04T04:09:57.016Z,80.88
2022-08-04T04:12:42.121Z,80.30
2022-08-04T04:15:39.573Z,81.25
2022-08-04T04:18:42.418Z,81.46
2022-08-04T04:21:18.153Z,80.70
2022-08-04T04:23:56.737Z,80.57
2022-08-04T04:26:46.750Z,80.62
2022-08-04T04:29:37.453Z,80.57
2022-08-04T04:32:34.507Z,80.94
2022-08-04T04:35:26.882Z,80.23
2022-08-04T04:38:30.577Z,80.52
2022-08-04T04:41:12.496Z,80.95
2022-08-04T04:43:56.828Z,80.95
2022-08-04T04:46:54.466Z,81.11
2022-08-04T04:49:34.897Z,81.54
2022-08-04T04:52:13.245Z,81.84
2022-08-04T04:54:45.672Z,81.41
2022-08-04T04:57:20.219Z,81.88
2022-08-04T05:00:10.329Z,82.05
2022-08-04T05:02:43.493Z,82.13
2022-08-04T05:05:15.555Z,81.81
2022-08-04T05:07:58.473Z,81.91
2022-08-04T05:10:46.693Z,81.20
2022-08-04T05:14:34.683Z,81.89
2022-08-04T05:16:30.982Z,82.02
2022-08-04T05:19:16.087Z,81.62
2022-08-04T05:21:48.143Z,81.14
2022-08-04T05:24:19.237Z,81.68
2022-08-04T05:26:50.191Z,81.38
2022-08-04T05:29:31.774Z,81.73
2022-08-04T05:32:01.787Z,81.52
2022-08-04T05:34:31.819Z,80.95
2022-08-04T05:37:01.719Z,80.78
2022-08-04T05:39:38.929Z,79.62
2022-08-04T05:42:06.556Z,79.41
2022-08-04T05:44:34.891Z,79.15
2022-08-04T05:47:04.248Z,78.83
2022-08-04T05:49:32.748Z,78.54
2022-08-04T05:52:01.854Z,78.16
2022-08-04T05:54:31.385Z,77.84
2022-08-04T05:56:59.046Z,77.98
2022-08-04T05:59:26.746Z,77.36
2022-08-04T06:01:57.095Z,77.44
2022-08-04T06:04:30.828Z,77.17
2022-08-04T06:06:57.477Z,77.20
2022-08-04T06:09:24.267Z,77.01
2022-08-04T06:12:03.071Z,76.68
2022-08-04T06:14:59.720Z,75.87
2022-08-04T06:19:57.671Z,75.77
2022-08-04T06:20:22.826Z,74.87
2022-08-04T06:22:54.528Z,74.39
2022-08-04T06:25:25.252Z,74.19
2022-08-04T06:27:53.388Z,73.85
2022-08-04T06:30:20.947Z,72.53
2022-08-04T06:33:03.394Z,71.84
2022-08-04T06:35:35.523Z,71.58
2022-08-04T06:38:11.589Z,70.78
2022-08-04T06:40:40.683Z,70.13
2022-08-04T06:43:08.486Z,69.77
2022-08-04T06:45:39.834Z,68.57
2022-08-04T06:48:09.107Z,67.54
2022-08-04T06:51:25.591Z,66.41
2022-08-04T06:53:35.954Z,66.08
2022-08-04T06:56:03.015Z,66.04
2022-08-04T06:58:32.090Z,65.95
2022-08-04T07:01:02.735Z,66.56
2022-08-04T07:03:31.026Z,66.55
2022-08-04T07:05:58.040Z,66.05
2022-08-04T07:08:27.237Z,64.87
2022-08-04T07:10:54.845Z,64.79
2022-08-04T07:13:27.848Z,62.33
2022-08-04T07:15:55.940Z,62.95
2022-08-04T07:18:22.527Z,63.28
2022-08-04T07:20:49.519Z,61.82
2022-08-04T07:23:21.624Z,61.39
2022-08-04T07:26:00.496Z,61.03
2022-08-04T07:28:46.506Z,60.67
2022-08-04T07:31:33.563Z,60.64
2022-08-04T07:34:20.626Z,60.12
2022-08-04T07:36:55.628Z,58.69
2022-08-04T07:39:27.270Z,58.45
2022-08-04T07:41:55.942Z,58.26
2022-08-04T07:44:22.414Z,57.67
2022-08-04T07:46:48.955Z,57.08
2022-08-04T07:49:54.351Z,57.01
2022-08-04T07:52:02.159Z,57.59
2022-08-04T07:54:29.311Z,54.45
2022-08-04T07:56:57.486Z,54.33
2022-08-04T07:59:24.777Z,53.85
2022-08-04T08:01:52.013Z,53.93
2022-08-04T08:04:18.948Z,53.15
2022-08-04T08:06:45.639Z,53.07
2022-08-04T08:09:18.785Z,53.53
2022-08-04T08:12:37.065Z,53.26
2022-08-04T08:14:36.344Z,52.05
2022-08-04T08:17:03.653Z,51.41
2022-08-04T08:19:34.759Z,52.33
2022-08-04T08:22:02.198Z,51.79
2022-08-04T08:24:31.077Z,51.00
2022-08-04T08:26:58.865Z,49.92
2022-08-04T08:29:26.258Z,50.05
2022-08-04T08:31:56.454Z,50.20
2022-08-04T08:34:28.803Z,48.05
2022-08-04T08:37:04.760Z,48.63
2022-08-04T08:39:59.588Z,48.61
2022-08-04T08:42:34.758Z,45.85
2022-08-04T08:45:12.275Z,44.31
2022-08-04T08:48:11.007Z,45.16
2022-08-04T08:50:53.255Z,44.85
2022-08-04T08:53:38.386Z,45.41
2022-08-04T08:56:31.173Z,43.95
2022-08-04T08:59:01.005Z,43.54
2022-08-04T09:01:48.981Z,43.49
2022-08-04T09:04:38.083Z,42.53
2022-08-04T09:07:15.639Z,43.79
2022-08-04T09:10:09.877Z,45.50
2022-08-04T09:12:39.300Z,43.26
2022-08-04T09:15:13.855Z,43.07
2022-08-04T09:17:50.051Z,41.83
2022-08-04T09:20:21.466Z,42.20
2022-08-04T09:23:06.946Z,41.33
2022-08-04T09:25:56.708Z,41.99
2022-08-04T09:28:52.877Z,43.33
2022-08-04T09:31:20.892Z,42.63
2022-08-04T09:34:04.460Z,42.91
2022-08-04T09:36:45.425Z,43.01
2022-08-04T09:39:24.562Z,42.82
2022-08-04T09:42:04.048Z,41.23
2022-08-04T09:44:55.286Z,42.71
2022-08-04T09:47:40.123Z,42.62
2022-08-04T09:50:32.114Z,42.54
2022-08-04T09:53:13.746Z,43.71
2022-08-04T09:56:18.932Z,42.15
2022-08-04T09:59:01.507Z,42.02
2022-08-04T10:01:30.480Z,41.73
2022-08-04T10:04:01.730Z,40.33
2022-08-04T10:06:59.961Z,39.71
2022-08-04T10:09:47.713Z,38.04
2022-08-04T10:12:26.440Z,36.83
2022-08-04T10:15:03.489Z,38.03
2022-08-04T10:18:04.331Z,35.59
2022-08-04T10:21:10.180Z,36.26
2022-08-04T10:24:21.853Z,37.76
2022-08-04T10:26:58.112Z,36.68
2022-08-04T10:29:31.055Z,34.20
2022-08-04T10:32:21.444Z,36.04
2022-08-04T10:35:14.075Z,34.51
2022-08-04T10:38:01.497Z,35.78
2022-08-04T10:40:49.229Z,38.90
2022-08-04T10:43:42.848Z,35.92
2022-08-04T10:46:30.149Z,34.58
2022-08-04T10:49:00.048Z,36.77
2022-08-04T10:51:58.513Z,34.70
2022-08-04T10:54:47.422Z,35.44
2022-08-04T10:57:27.116Z,37.16
2022-08-04T10:59:59.080Z,33.96
2022-08-04T11:02:58.478Z,33.60
2022-08-04T11:05:29.228Z,32.89
2022-08-04T11:08:11.493Z,33.09
2022-08-04T11:11:05.862Z,31.20
2022-08-04T11:13:45.039Z,32.75
2022-08-04T11:16:19.578Z,33.42
2022-08-04T11:19:04.397Z,34.96
2022-08-04T11:21:39.695Z,32.27
2022-08-04T11:24:22.765Z,33.71
2022-08-04T11:27:07.038Z,33.26
2022-08-04T11:29:45.689Z,32.16
2022-08-04T11:32:31.161Z,35.02
2022-08-04T11:35:04.073Z,32.75
2022-08-04T11:37:46.831Z,31.82
2022-08-04T11:40:32.897Z,32.29
2022-08-04T11:43:08.477Z,33.35
2022-08-04T11:45:40.811Z,33.41
2022-08-04T11:48:13.197Z,30.61
2022-08-04T11:50:53.971Z,30.47
2022-08-04T11:53:39.890Z,30.94
2022-08-04T11:56:12.658Z,31.13
2022-08-04T11:58:50.225Z,28.60
2022-08-04T12:01:31.477Z,29.05
2022-08-04T12:04:35.538Z,30.10
2022-08-04T12:07:53.265Z,31.98
2022-08-04T12:10:45.512Z,30.73
2022-08-04T12:13:28.015Z,30.13
2022-08-04T12:16:12.654Z,29.49
2022-08-04T12:19:16.782Z,30.41
2022-08-04T12:21:53.438Z,28.09
2022-08-04T12:24:31.091Z,28.90
2022-08-04T12:27:04.673Z,29.41
2022-08-04T12:30:56.345Z,28.22
2022-08-04T12:32:53.607Z,31.19
2022-08-04T12:35:58.153Z,28.15
2022-08-04T12:38:34.635Z,28.16
2022-08-04T12:41:04.951Z,27.00
2022-08-04T12:43:47.016Z,27.64
2022-08-04T12:46:22.159Z,27.85
2022-08-04T12:48:51.354Z,25.88
2022-08-04T12:52:06.555Z,25.10
2022-08-04T12:54:08.643Z,26.84
2022-08-04T12:56:35.769Z,25.92
2022-08-04T12:59:12.622Z,24.89
2022-08-04T13:02:07.338Z,27.34
2022-08-04T13:04:42.555Z,27.59
2022-08-04T13:07:19.472Z,27.06
2022-08-04T13:09:47.127Z,25.64
2022-08-04T13:12:16.773Z,26.11
2022-08-04T13:14:44.802Z,24.13
2022-08-04T13:17:12.599Z,26.53
2022-08-04T13:19:45.124Z,26.26
2022-08-04T13:22:16.225Z,24.45
2022-08-04T13:24:56.534Z,26.09
2022-08-04T13:27:43.293Z,25.94
2022-08-04T13:30:31.268Z,25.16
2022-08-04T13:33:00.952Z,23.52
2022-08-04T13:35:54.758Z,27.08
2022-08-04T13:38:25.562Z,25.14
2022-08-04T13:40:52.640Z,25.82
2022-08-04T13:44:16.266Z,25.70
2022-08-04T13:46:33.964Z,25.34
2022-08-04T13:52:10.910Z,23.98
2022-08-04T13:54:45.834Z,24.29
2022-08-04T13:57:31.207Z,25.17
2022-08-04T14:00:02.793Z,25.52
2022-08-04T14:02:47.829Z,28.41
2022-08-04T14:05:33.914Z,23.89
2022-08-04T14:08:05.998Z,25.35
2022-08-04T14:10:33.722Z,25.63
2022-08-04T14:13:03.346Z,26.14
2022-08-04T14:16:01.939Z,25.11
2022-08-04T14:18:26.549Z,25.78
2022-08-04T14:21:00.133Z,25.99
2022-08-04T14:23:31.796Z,27.80
2022-08-04T14:25:59.914Z,27.83
2022-08-04T14:28:47.014Z,25.51
2022-08-04T14:31:21.917Z,25.41
2022-08-04T14:34:01.063Z,26.04
2022-08-04T14:37:13.328Z,25.66
2022-08-04T14:40:19.329Z,25.92
2022-08-04T14:42:55.451Z,26.19
2022-08-04T14:45:54.042Z,26.00
2022-08-04T14:48:21.907Z,25.53
2022-08-04T14:50:49.497Z,26.38
2022-08-04T14:53:17.739Z,25.37
2022-08-04T14:55:49.600Z,26.02
2022-08-04T14:58:34.215Z,26.44
2022-08-04T15:01:11.015Z,25.97
2022-08-04T15:03:50.697Z,24.71
2022-08-04T15:06:26.219Z,25.50
2022-08-04T15:08:54.931Z,26.28
2022-08-04T15:11:23.920Z,27.16
2022-08-04T15:13:55.105Z,24.28
2022-08-04T15:16:22.944Z,23.97
2022-08-04T15:19:00.884Z,25.08
2022-08-04T15:21:28.989Z,24.75
2022-08-04T15:23:59.226Z,24.46
2022-08-04T15:26:32.105Z,25.15
2022-08-04T15:29:25.055Z,24.58
2022-08-04T15:32:04.376Z,22.42
2022-08-04T15:35:02.507Z,23.78
2022-08-04T15:37:37.059Z,22.07
2022-08-04T15:40:14.854Z,21.25
2022-08-04T15:42:49.615Z,22.51
2022-08-04T15:46:02.936Z,21.13
2022-08-04T15:48:13.628Z,21.19
2022-08-04T15:50:55.305Z,20.64
2022-08-04T15:53:23.002Z,21.26
2022-08-04T15:55:49.817Z,21.56
2022-08-04T15:58:20.359Z,20.05
2022-08-04T16:00:49.838Z,21.17
2022-08-04T16:03:59.214Z,20.88
2022-08-04T16:06:20.874Z,19.55
2022-08-04T16:08:57.954Z,19.93
2022-08-04T16:11:30.919Z,20.06
2022-08-04T16:14:01.613Z,19.83
2022-08-04T16:16:32.933Z,19.97
2022-08-04T16:19:10.053Z,19.55
2022-08-04T16:21:50.610Z,20.29
2022-08-04T16:24:36.299Z,19.75
2022-08-04T16:27:04.833Z,21.03
2022-08-04T16:29:40.681Z,20.64
2022-08-04T16:32:13.261Z,19.88
2022-08-04T16:34:59.928Z,20.41
2022-08-04T16:37:35.553Z,21.78
2022-08-04T16:40:37.631Z,23.17
2022-08-04T16:43:11.339Z,22.50
2022-08-04T16:46:03.951Z,22.30
2022-08-04T16:48:35.617Z,21.37
2022-08-04T16:51:07.959Z,22.10
2022-08-04T16:53:53.038Z,22.49
2022-08-04T16:56:29.869Z,23.73
2022-08-04T16:58:56.697Z,25.16
2022-08-04T17:01:33.770Z,25.57
2022-08-04T17:04:05.247Z,24.34
2022-08-04T17:06:37.020Z,25.83
2022-08-04T17:09:12.145Z,25.63
2022-08-04T17:11:38.726Z,24.10
2022-08-04T17:14:06.438Z,26.30
2022-08-04T17:16:36.203Z,26.36
2022-08-04T17:19:03.669Z,28.14
2022-08-04T17:21:32.450Z,29.04
2022-08-04T17:24:14.185Z,27.73
2022-08-04T17:26:54.269Z,27.61
2022-08-04T17:29:44.956Z,28.38
2022-08-04T17:32:20.761Z,28.34
2022-08-04T17:35:02.069Z,29.34
2022-08-04T17:37:39.249Z,32.04
2022-08-04T17:40:13.360Z,31.98
2022-08-04T17:42:41.514Z,30.89
2022-08-04T17:48:00.287Z,37.59
2022-08-04T17:50:31.262Z,38.76
2022-08-04T17:53:02.229Z,38.21
2022-08-04T17:55:44.635Z,33.63
2022-08-04T17:58:22.321Z,34.67
2022-08-04T18:03:51.515Z,37.98
2022-08-04T18:06:20.487Z,38.08
2022-08-04T18:08:54.775Z,38.84
2022-08-04T18:11:25.022Z,38.80
2022-08-04T18:13:57.104Z,39.28
2022-08-04T18:16:24.138Z,40.00
2022-08-04T18:19:11.067Z,41.01
2022-08-04T18:21:45.487Z,41.47
2022-08-04T18:24:28.513Z,42.48
2022-08-04T18:27:01.413Z,42.63
2022-08-04T18:29:31.941Z,43.31
2022-08-04T18:31:58.598Z,45.04
2022-08-04T18:34:54.422Z,44.57
2022-08-04T18:38:03.156Z,44.88
2022-08-04T18:40:10.690Z,42.04
2022-08-04T18:42:52.697Z,42.26
2022-08-04T18:45:19.905Z,43.42
2022-08-04T18:47:58.290Z,46.48
2022-08-04T18:50:59.425Z,46.11
2022-08-04T18:53:13.057Z,44.89
2022-08-04T18:55:56.756Z,45.05
2022-08-04T18:58:27.158Z,45.85
2022-08-04T19:00:55.669Z,46.85
2022-08-04T19:03:23.068Z,47.04
2022-08-04T19:05:50.383Z,48.21
2022-08-04T19:08:34.523Z,48.15
2022-08-04T19:11:37.258Z,48.22
2022-08-04T19:14:04.733Z,51.16
2022-08-04T19:16:32.608Z,52.08
2022-08-04T19:19:03.325Z,52.89
2022-08-04T19:22:00.317Z,53.65
2022-08-04T19:24:31.106Z,54.22
2022-08-04T19:27:02.294Z,54.68
2022-08-04T19:29:37.968Z,54.24
2022-08-04T19:32:15.027Z,54.59
2022-08-04T19:34:46.482Z,55.19
2022-08-04T19:37:58.392Z,55.23
2022-08-04T19:40:09.470Z,55.21
2022-08-04T19:42:36.896Z,54.38
2022-08-04T19:45:05.052Z,54.19
2022-08-04T19:48:16.953Z,55.67
2022-08-04T19:50:18.226Z,56.38
2022-08-04T19:52:51.790Z,57.14
2022-08-04T19:55:22.305Z,57.09
2022-08-04T19:57:49.699Z,57.33
2022-08-04T20:00:17.877Z,57.31
2022-08-04T20:03:00.161Z,57.81
2022-08-04T20:05:52.459Z,57.47
2022-08-04T20:08:13.722Z,57.35
2022-08-04T20:10:51.325Z,56.92
2022-08-04T20:13:19.825Z,57.81
2022-08-04T20:18:54.735Z,57.31
2022-08-04T20:21:53.671Z,58.37
2022-08-04T20:24:38.909Z,58.94
2022-08-04T20:27:11.590Z,59.36
2022-08-04T20:29:48.472Z,59.57
2022-08-04T20:32:19.478Z,60.26
2022-08-04T20:34:47.230Z,60.16
2022-08-04T20:37:15.443Z,60.74
2022-08-04T20:39:42.196Z,60.95
2022-08-04T20:42:11.486Z,61.21
2022-08-04T20:44:55.880Z,61.57
2022-08-04T20:47:22.564Z,62.11
2022-08-04T20:49:49.179Z,61.83
2022-08-04T20:52:20.383Z,62.03
2022-08-04T20:54:48.691Z,62.36
2022-08-04T20:57:20.531Z,62.59
2022-08-04T21:00:02.543Z,62.77
2022-08-04T21:02:29.374Z,63.02
2022-08-04T21:04:55.882Z,62.58
2022-08-04T21:07:24.654Z,63.07
2022-08-04T21:09:51.768Z,62.87
2022-08-04T21:12:27.656Z,63.60
2022-08-04T21:14:57.157Z,63.36
2022-08-04T21:20:12.976Z,64.16
2022-08-04T21:22:40.534Z,64.56
2022-08-04T21:25:08.122Z,64.95
2022-08-04T21:27:43.373Z,64.70
2022-08-04T21:30:23.938Z,64.69
2022-08-04T21:32:50.820Z,64.73
2022-08-04T21:35:18.682Z,64.89
2022-08-04T21:40:38.529Z,65.32
2022-08-04T21:43:05.769Z,65.49
2022-08-04T21:45:37.829Z,65.27
2022-08-04T21:48:04.761Z,65.75
2022-08-04T21:50:31.295Z,66.53
2022-08-04T21:52:57.737Z,66.42
2022-08-04T21:55:25.821Z,66.71
2022-08-04T21:58:12.462Z,66.66
2022-08-04T22:00:40.575Z,66.44
2022-08-04T22:03:11.248Z,66.47
2022-08-04T22:05:55.157Z,66.79
2022-08-04T22:08:23.450Z,67.04
2022-08-04T22:10:50.442Z,67.06
2022-08-04T22:13:22.475Z,67.22
2022-08-04T22:16:04.482Z,67.01
2022-08-04T22:18:32.198Z,66.80
2022-08-04T22:21:04.012Z,66.51
2022-08-04T22:23:45.088Z,67.53
2022-08-04T22:26:26.598Z,67.44
2022-08-04T22:28:54.117Z,67.40
2022-08-04T22:31:23.768Z,67.43
2022-08-04T22:33:54.350Z,67.79
2022-08-04T22:36:22.102Z,68.04
2022-08-04T22:38:58.008Z,68.31
2022-08-04T22:41:34.202Z,68.40
2022-08-04T22:44:16.107Z,68.51
2022-08-04T22:46:42.772Z,68.87
2022-08-04T22:49:09.373Z,69.08
2022-08-04T22:51:36.009Z,69.07
2022-08-04T22:54:02.495Z,69.21
2022-08-04T22:56:39.179Z,69.09
2022-08-04T22:59:11.385Z,69.56
2022-08-04T23:02:00.145Z,69.53
2022-08-04T23:04:26.398Z,69.98
2022-08-04T23:06:54.353Z,70.62
2022-08-04T23:09:21.566Z,70.55
2022-08-04T23:11:53.950Z,70.54
2022-08-04T23:14:29.357Z,70.11
2022-08-04T23:16:55.806Z,70.51
2022-08-04T23:19:24.717Z,70.16
2022-08-04T23:22:01.596Z,70.05
2022-08-04T23:24:29.638Z,70.33
2022-08-04T23:26:57.074Z,70.19
2022-08-04T23:29:23.999Z,69.92
2022-08-04T23:31:59.358Z,70.07
2022-08-04T23:34:26.947Z,71.01
2022-08-04T23:36:55.855Z,70.47
2022-08-04T23:39:25.837Z,70.32
2022-08-04T23:42:15.018Z,70.33
2022-08-04T23:44:48.455Z,70.75
2022-08-04T23:48:16.658Z,70.56
2022-08-04T23:50:01.338Z,70.50
2022-08-04T23:52:30.223Z,70.57
2022-08-04T23:55:00.797Z,70.15
2022-08-04T23:58:05.336Z,70.14
